Mount Sherman, Kentucky
Current Conditions -  °F | °C
As of 9:35 AM on Saturday 25 Oct 2014 (Local Time) from KGLW Reporting Station
Scattered Clouds Scattered Clouds  
Wind Chill: 50°   Ceiling: Unl
Heat Index: 50°   Visibility: 7mi
Dew Point: 48°   Wind: 0mph
Humidity: 91%   Direction: NA
Pressure: 30.08"   Gusts: NA
Location:  37.45°N, 85.67°W
Report Text: KGLW 251335Z AUTO 00000KT 7SM SCT041 SCT046 10/09 A3008 RMK AO2 T01010087
Loading
Personal Weather Stations






























Interactive Weather Map
Tropical Storm Tracking
New forecast layout! Learn more

10-Day Weather Forecast

Advertisements
Track Severe Weather on mobile